sensor_id;sensor_type;location;lat;lon;timestamp;pressure;altitude;pressure_sealevel;temperature;humidity
75409;BME280;63979;55.644;37.734;2024-03-08T00:01:50;100321.06;;;-1.67;59.41
75409;BME280;63979;55.644;37.734;2024-03-08T00:06:51;100315.00;;;-1.75;59.78
75409;BME280;63979;55.644;37.734;2024-03-08T00:11:52;100300.19;;;-1.76;59.46
75409;BME280;63979;55.644;37.734;2024-03-08T00:16:53;100306.31;;;-1.77;59.36
75409;BME280;63979;55.644;37.734;2024-03-08T00:21:54;100288.06;;;-1.83;60.16
75409;BME280;63979;55.644;37.734;2024-03-08T00:26:55;100282.97;;;-1.94;59.63
75409;BME280;63979;55.644;37.734;2024-03-08T00:31:56;100270.88;;;-2.05;60.49
75409;BME280;63979;55.644;37.734;2024-03-08T00:36:58;100256.09;;;-2.11;60.28
75409;BME280;63979;55.644;37.734;2024-03-08T00:41:59;100246.50;;;-2.09;59.61
75409;BME280;63979;55.644;37.734;2024-03-08T00:47:00;100263.06;;;-2.07;59.75
75409;BME280;63979;55.644;37.734;2024-03-08T00:52:00;100255.28;;;-2.14;59.34
75409;BME280;63979;55.644;37.734;2024-03-08T00:57:02;100250.06;;;-2.17;59.39
75409;BME280;63979;55.644;37.734;2024-03-08T01:02:03;100245.75;;;-2.22;59.09
75409;BME280;63979;55.644;37.734;2024-03-08T01:07:04;100249.09;;;-2.06;58.49
75409;BME280;63979;55.644;37.734;2024-03-08T01:12:05;100233.13;;;-1.83;58.29
75409;BME280;63979;55.644;37.734;2024-03-08T01:17:08;100233.78;;;-1.63;57.89
75409;BME280;63979;55.644;37.734;2024-03-08T01:22:10;100235.25;;;-1.43;57.52
75409;BME280;63979;55.644;37.734;2024-03-08T01:27:11;100197.88;;;-1.54;57.28
75409;BME280;63979;55.644;37.734;2024-03-08T01:32:13;100230.94;;;-1.47;56.72
75409;BME280;63979;55.644;37.734;2024-03-08T01:37:15;100185.91;;;-1.74;57.61
75409;BME280;63979;55.644;37.734;2024-03-08T01:42:16;100209.19;;;-1.52;57.44
75409;BME280;63979;55.644;37.734;2024-03-08T01:47:18;100209.50;;;-1.75;57.82
75409;BME280;63979;55.644;37.734;2024-03-08T01:52:20;100205.06;;;-1.69;58.55
75409;BME280;63979;55.644;37.734;2024-03-08T01:57:23;100207.66;;;-1.66;58.80
75409;BME280;63979;55.644;37.734;2024-03-08T02:02:24;100200.50;;;-1.54;58.53
75409;BME280;63979;55.644;37.734;2024-03-08T02:07:25;100177.88;;;-1.57;58.38
75409;BME280;63979;55.644;37.734;2024-03-08T02:12:26;100209.38;;;-1.65;58.99
75409;BME280;63979;55.644;37.734;2024-03-08T02:17:27;100183.41;;;-1.81;59.45
75409;BME280;63979;55.644;37.734;2024-03-08T02:22:28;100181.81;;;-1.92;59.59
75409;BME280;63979;55.644;37.734;2024-03-08T02:27:30;100155.81;;;-2.05;60.19
75409;BME280;63979;55.644;37.734;2024-03-08T02:32:31;100165.47;;;-2.12;60.40
75409;BME280;63979;55.644;37.734;2024-03-08T02:37:33;100171.56;;;-2.11;60.78
75409;BME280;63979;55.644;37.734;2024-03-08T02:42:34;100134.50;;;-2.47;61.32
75409;BME280;63979;55.644;37.734;2024-03-08T02:47:34;100166.66;;;-2.37;61.10
75409;BME280;63979;55.644;37.734;2024-03-08T02:52:35;100171.16;;;-2.53;61.99
75409;BME280;63979;55.644;37.734;2024-03-08T02:57:36;100162.31;;;-2.40;61.94
75409;BME280;63979;55.644;37.734;2024-03-08T03:02:37;100133.56;;;-2.43;61.58
75409;BME280;63979;55.644;37.734;2024-03-08T03:07:38;100166.34;;;-2.13;61.62
75409;BME280;63979;55.644;37.734;2024-03-08T03:12:39;100155.09;;;-2.18;61.06
75409;BME280;63979;55.644;37.734;2024-03-08T03:17:41;100133.59;;;-2.41;61.22
75409;BME280;63979;55.644;37.734;2024-03-08T03:22:41;100128.47;;;-2.54;61.95
75409;BME280;63979;55.644;37.734;2024-03-08T03:27:45;100108.72;;;-2.77;62.13
75409;BME280;63979;55.644;37.734;2024-03-08T03:32:49;100086.38;;;-3.07;63.11
75409;BME280;63979;55.644;37.734;2024-03-08T03:37:51;100125.34;;;-2.89;63.02
75409;BME280;63979;55.644;37.734;2024-03-08T03:43:12;100115.13;;;-3.15;63.74
75409;BME280;63979;55.644;37.734;2024-03-08T03:48:13;100113.41;;;-3.16;63.78
75409;BME280;63979;55.644;37.734;2024-03-08T03:53:14;100098.53;;;-3.05;63.92
75409;BME280;63979;55.644;37.734;2024-03-08T03:58:15;100099.19;;;-2.86;63.45
75409;BME280;63979;55.644;37.734;2024-03-08T04:03:16;100104.41;;;-2.85;62.56
75409;BME280;63979;55.644;37.734;2024-03-08T04:08:17;100102.56;;;-2.72;63.34
75409;BME280;63979;55.644;37.734;2024-03-08T04:13:18;100073.91;;;-2.81;62.73
75409;BME280;63979;55.644;37.734;2024-03-08T04:18:21;100107.50;;;-2.49;62.61
75409;BME280;63979;55.644;37.734;2024-03-08T04:23:21;100095.13;;;-2.30;62.20
75409;BME280;63979;55.644;37.734;2024-03-08T04:28:22;100095.25;;;-2.44;62.29
75409;BME280;63979;55.644;37.734;2024-03-08T04:33:23;100090.00;;;-2.38;62.32
75409;BME280;63979;55.644;37.734;2024-03-08T04:38:24;100103.69;;;-2.21;61.71
75409;BME280;63979;55.644;37.734;2024-03-08T04:43:25;100088.13;;;-2.30;62.48
75409;BME280;63979;55.644;37.734;2024-03-08T04:48:27;100100.94;;;-2.10;62.07
75409;BME280;63979;55.644;37.734;2024-03-08T04:53:28;100096.56;;;-2.06;62.24
75409;BME280;63979;55.644;37.734;2024-03-08T04:58:29;100041.22;;;-2.40;62.83
75409;BME280;63979;55.644;37.734;2024-03-08T05:03:30;100086.25;;;-2.20;62.95
75409;BME280;63979;55.644;37.734;2024-03-08T05:08:31;100049.00;;;-2.36;63.31
75409;BME280;63979;55.644;37.734;2024-03-08T05:13:31;100079.97;;;-2.04;62.74
75409;BME280;63979;55.644;37.734;2024-03-08T05:18:35;100068.78;;;-2.16;64.26
75409;BME280;63979;55.644;37.734;2024-03-08T05:23:36;100068.84;;;-2.21;64.43
75409;BME280;63979;55.644;37.734;2024-03-08T05:28:39;100067.09;;;-2.21;65.30
75409;BME280;63979;55.644;37.734;2024-03-08T05:33:40;100058.06;;;-1.95;64.82
75409;BME280;63979;55.644;37.734;2024-03-08T05:38:43;100067.59;;;-1.93;65.36
75409;BME280;63979;55.644;37.734;2024-03-08T05:43:44;100063.97;;;-1.82;65.81
75409;BME280;63979;55.644;37.734;2024-03-08T05:48:45;100070.72;;;-1.66;65.01
75409;BME280;63979;55.644;37.734;2024-03-08T05:53:47;100074.94;;;-1.58;65.07
75409;BME280;63979;55.644;37.734;2024-03-08T05:58:47;100065.44;;;-1.63;65.00
75409;BME280;63979;55.644;37.734;2024-03-08T06:03:50;100065.91;;;-1.38;64.87
75409;BME280;63979;55.644;37.734;2024-03-08T06:08:52;100059.50;;;-1.20;63.41
75409;BME280;63979;55.644;37.734;2024-03-08T06:13:53;100067.13;;;-1.08;63.46
75409;BME280;63979;55.644;37.734;2024-03-08T06:19:03;100054.25;;;-1.20;63.69
75409;BME280;63979;55.644;37.734;2024-03-08T06:24:05;100011.59;;;-1.27;63.21
75409;BME280;63979;55.644;37.734;2024-03-08T06:29:06;100053.16;;;-1.09;62.77
75409;BME280;63979;55.644;37.734;2024-03-08T06:34:07;100058.75;;;-0.79;63.10
75409;BME280;63979;55.644;37.734;2024-03-08T06:39:08;100056.72;;;-0.64;61.91
75409;BME280;63979;55.644;37.734;2024-03-08T06:44:12;100058.66;;;-0.30;60.80
75409;BME280;63979;55.644;37.734;2024-03-08T06:49:13;100060.22;;;-0.21;60.06
75409;BME280;63979;55.644;37.734;2024-03-08T06:54:14;100050.00;;;-0.34;60.07
75409;BME280;63979;55.644;37.734;2024-03-08T06:59:15;100056.63;;;-0.17;59.90
75409;BME280;63979;55.644;37.734;2024-03-08T07:04:18;100049.06;;;0.09;59.39
75409;BME280;63979;55.644;37.734;2024-03-08T07:09:20;100050.59;;;0.19;58.35
75409;BME280;63979;55.644;37.734;2024-03-08T07:14:22;100056.44;;;0.30;58.24
75409;BME280;63979;55.644;37.734;2024-03-08T07:19:23;100044.09;;;0.34;57.96
75409;BME280;63979;55.644;37.734;2024-03-08T07:24:24;100039.94;;;0.25;58.47
75409;BME280;63979;55.644;37.734;2024-03-08T07:29:38;100049.38;;;0.32;57.77
75409;BME280;63979;55.644;37.734;2024-03-08T07:34:39;100059.28;;;0.58;58.19
75409;BME280;63979;55.644;37.734;2024-03-08T07:39:40;100010.31;;;0.20;57.58
75409;BME280;63979;55.644;37.734;2024-03-08T07:44:41;100043.13;;;0.75;57.04
75409;BME280;63979;55.644;37.734;2024-03-08T07:49:42;100053.59;;;1.11;55.73
75409;BME280;63979;55.644;37.734;2024-03-08T07:54:44;100038.09;;;1.33;55.86
75409;BME280;63979;55.644;37.734;2024-03-08T07:59:45;100024.47;;;1.49;54.74
75409;BME280;63979;55.644;37.734;2024-03-08T08:04:46;100010.66;;;1.43;54.73
75409;BME280;63979;55.644;37.734;2024-03-08T08:09:47;100007.47;;;1.61;53.81
75409;BME280;63979;55.644;37.734;2024-03-08T08:14:48;100031.47;;;1.50;54.99
75409;BME280;63979;55.644;37.734;2024-03-08T08:19:49;99994.63;;;1.50;54.27
75409;BME280;63979;55.644;37.734;2024-03-08T08:24:50;100027.84;;;1.84;53.54
75409;BME280;63979;55.644;37.734;2024-03-08T08:29:52;100033.66;;;1.95;53.27
75409;BME280;63979;55.644;37.734;2024-03-08T08:34:53;100035.59;;;2.18;53.28
75409;BME280;63979;55.644;37.734;2024-03-08T08:39:54;100011.66;;;2.26;52.72
75409;BME280;63979;55.644;37.734;2024-03-08T08:44:55;100025.56;;;2.84;51.38
75409;BME280;63979;55.644;37.734;2024-03-08T08:49:58;100015.97;;;3.56;49.95
75409;BME280;63979;55.644;37.734;2024-03-08T08:54:59;100017.19;;;3.47;49.87
75409;BME280;63979;55.644;37.734;2024-03-08T09:00:01;100020.44;;;3.77;49.08
75409;BME280;63979;55.644;37.734;2024-03-08T09:05:07;100022.50;;;4.37;48.02
75409;BME280;63979;55.644;37.734;2024-03-08T09:10:08;99990.69;;;3.95;47.82
75409;BME280;63979;55.644;37.734;2024-03-08T09:15:10;100014.94;;;4.28;47.66
75409;BME280;63979;55.644;37.734;2024-03-08T09:20:14;100010.97;;;3.71;49.37
75409;BME280;63979;55.644;37.734;2024-03-08T09:25:15;100003.41;;;4.07;48.83
75409;BME280;63979;55.644;37.734;2024-03-08T09:30:18;100005.53;;;4.43;48.41
75409;BME280;63979;55.644;37.734;2024-03-08T09:35:19;100003.66;;;4.45;48.49
75409;BME280;63979;55.644;37.734;2024-03-08T09:40:20;99989.56;;;4.88;47.82
75409;BME280;63979;55.644;37.734;2024-03-08T09:45:24;99972.81;;;5.08;46.32
75409;BME280;63979;55.644;37.734;2024-03-08T09:50:26;99969.44;;;5.44;45.44
75409;BME280;63979;55.644;37.734;2024-03-08T09:55:29;99986.78;;;4.91;46.82
75409;BME280;63979;55.644;37.734;2024-03-08T10:00:34;99993.66;;;4.53;48.36
75409;BME280;63979;55.644;37.734;2024-03-08T10:05:35;99987.94;;;4.42;48.02
75409;BME280;63979;55.644;37.734;2024-03-08T10:10:37;99987.03;;;3.99;49.69
75409;BME280;63979;55.644;37.734;2024-03-08T10:15:40;99998.13;;;4.07;50.37
75409;BME280;63979;55.644;37.734;2024-03-08T10:20:41;99987.34;;;4.35;49.66
75409;BME280;63979;55.644;37.734;2024-03-08T10:25:43;99974.13;;;4.78;48.99
75409;BME280;63979;55.644;37.734;2024-03-08T10:30:47;99971.66;;;4.73;48.01
75409;BME280;63979;55.644;37.734;2024-03-08T10:35:50;99942.97;;;5.05;47.41
75409;BME280;63979;55.644;37.734;2024-03-08T10:40:51;99977.16;;;6.06;45.76
75409;BME280;63979;55.644;37.734;2024-03-08T10:51:29;99934.84;;;5.67;46.22
75409;BME280;63979;55.644;37.734;2024-03-08T10:56:31;99978.09;;;5.08;48.01
75409;BME280;63979;55.644;37.734;2024-03-08T11:01:32;99980.81;;;4.86;48.94
75409;BME280;63979;55.644;37.734;2024-03-08T11:11:38;99983.72;;;4.38;50.65
75409;BME280;63979;55.644;37.734;2024-03-08T11:16:43;99972.59;;;3.86;51.72
75409;BME280;63979;55.644;37.734;2024-03-08T11:21:45;99978.44;;;3.71;52.19
75409;BME280;63979;55.644;37.734;2024-03-08T11:26:46;99961.91;;;3.89;52.06
75409;BME280;63979;55.644;37.734;2024-03-08T11:31:48;99970.25;;;4.00;52.01
75409;BME280;63979;55.644;37.734;2024-03-08T11:36:49;99977.28;;;4.23;52.02
75409;BME280;63979;55.644;37.734;2024-03-08T11:41:49;99973.47;;;4.51;51.06
75409;BME280;63979;55.644;37.734;2024-03-08T11:46:50;99969.63;;;4.37;51.10
75409;BME280;63979;55.644;37.734;2024-03-08T11:51:52;99962.28;;;4.66;50.43
75409;BME280;63979;55.644;37.734;2024-03-08T11:56:54;99955.41;;;4.82;50.07
75409;BME280;63979;55.644;37.734;2024-03-08T12:02:03;99961.38;;;5.08;49.09
75409;BME280;63979;55.644;37.734;2024-03-08T12:07:04;99962.00;;;5.33;48.08
75409;BME280;63979;55.644;37.734;2024-03-08T12:12:10;99966.72;;;5.06;49.23
75409;BME280;63979;55.644;37.734;2024-03-08T12:17:12;99969.94;;;5.33;48.81
75409;BME280;63979;55.644;37.734;2024-03-08T12:22:14;99968.06;;;4.96;49.13
75409;BME280;63979;55.644;37.734;2024-03-08T12:27:19;99972.66;;;5.11;48.72
75409;BME280;63979;55.644;37.734;2024-03-08T12:32:21;99966.91;;;5.61;48.05
75409;BME280;63979;55.644;37.734;2024-03-08T12:37:23;99970.59;;;5.38;48.11
75409;BME280;63979;55.644;37.734;2024-03-08T12:42:25;99980.44;;;5.74;47.94
75409;BME280;63979;55.644;37.734;2024-03-08T12:47:27;99972.53;;;5.92;47.50
75409;BME280;63979;55.644;37.734;2024-03-08T12:52:30;99938.69;;;5.22;47.96
75409;BME280;63979;55.644;37.734;2024-03-08T12:57:35;99969.59;;;5.41;48.40
75409;BME280;63979;55.644;37.734;2024-03-08T13:02:38;99959.56;;;4.67;48.93
75409;BME280;63979;55.644;37.734;2024-03-08T13:07:40;99966.03;;;5.79;48.03
75409;BME280;63979;55.644;37.734;2024-03-08T13:12:45;99980.50;;;6.99;43.72
75409;BME280;63979;55.644;37.734;2024-03-08T13:17:50;99976.66;;;6.17;44.76
75409;BME280;63979;55.644;37.734;2024-03-08T13:22:51;99983.31;;;5.30;47.68
75409;BME280;63979;55.644;37.734;2024-03-08T13:27:52;99985.22;;;4.65;48.42
75409;BME280;63979;55.644;37.734;2024-03-08T13:32:54;99966.31;;;4.32;48.83
75409;BME280;63979;55.644;37.734;2024-03-08T13:37:55;99951.25;;;4.13;49.05
75409;BME280;63979;55.644;37.734;2024-03-08T13:42:56;99981.69;;;4.01;50.26
75409;BME280;63979;55.644;37.734;2024-03-08T13:47:57;99956.50;;;3.92;49.57
75409;BME280;63979;55.644;37.734;2024-03-08T13:52:58;99961.03;;;3.89;49.96
75409;BME280;63979;55.644;37.734;2024-03-08T13:57:59;99960.06;;;3.44;51.33
75409;BME280;63979;55.644;37.734;2024-03-08T14:03:00;99956.06;;;4.67;48.85
75409;BME280;63979;55.644;37.734;2024-03-08T14:08:02;99959.06;;;6.69;43.79
75409;BME280;63979;55.644;37.734;2024-03-08T14:13:04;99965.00;;;8.38;39.88
75409;BME280;63979;55.644;37.734;2024-03-08T14:18:07;99981.91;;;8.83;39.07
75409;BME280;63979;55.644;37.734;2024-03-08T14:23:08;99978.19;;;8.08;40.24
75409;BME280;63979;55.644;37.734;2024-03-08T14:28:09;99965.25;;;6.51;42.87
75409;BME280;63979;55.644;37.734;2024-03-08T14:33:11;99971.44;;;5.39;45.98
75409;BME280;63979;55.644;37.734;2024-03-08T14:38:12;99978.38;;;4.18;49.45
75409;BME280;63979;55.644;37.734;2024-03-08T14:43:13;99978.50;;;3.69;51.13
75409;BME280;63979;55.644;37.734;2024-03-08T14:48:14;99981.25;;;3.43;51.86
75409;BME280;63979;55.644;37.734;2024-03-08T14:53:15;99992.72;;;3.42;52.58
75409;BME280;63979;55.644;37.734;2024-03-08T14:58:16;99992.59;;;3.22;52.51
75409;BME280;63979;55.644;37.734;2024-03-08T15:03:18;99953.03;;;2.72;54.18
75409;BME280;63979;55.644;37.734;2024-03-08T15:08:21;99989.25;;;2.92;54.00
75409;BME280;63979;55.644;37.734;2024-03-08T15:13:23;99987.63;;;2.88;54.40
75409;BME280;63979;55.644;37.734;2024-03-08T15:18:28;99991.47;;;2.79;54.99
75409;BME280;63979;55.644;37.734;2024-03-08T15:23:36;99985.13;;;2.58;55.59
75409;BME280;63979;55.644;37.734;2024-03-08T15:28:37;99992.81;;;2.64;55.82
75409;BME280;63979;55.644;37.734;2024-03-08T15:33:39;99998.09;;;2.64;55.99
75409;BME280;63979;55.644;37.734;2024-03-08T15:38:49;100010.84;;;2.76;56.20
75409;BME280;63979;55.644;37.734;2024-03-08T15:43:51;99992.75;;;2.66;56.33
75409;BME280;63979;55.644;37.734;2024-03-08T15:48:52;99952.50;;;2.36;56.88
75409;BME280;63979;55.644;37.734;2024-03-08T15:53:53;99995.78;;;2.55;57.24
75409;BME280;63979;55.644;37.734;2024-03-08T15:58:54;99999.00;;;2.37;57.98
75409;BME280;63979;55.644;37.734;2024-03-08T16:03:55;100007.31;;;2.51;57.95
75409;BME280;63979;55.644;37.734;2024-03-08T16:08:59;100001.63;;;2.63;57.33
75409;BME280;63979;55.644;37.734;2024-03-08T16:14:00;99999.47;;;2.49;57.74
75409;BME280;63979;55.644;37.734;2024-03-08T16:19:03;100016.41;;;2.41;58.35
75409;BME280;63979;55.644;37.734;2024-03-08T16:24:07;100010.13;;;2.46;58.39
75409;BME280;63979;55.644;37.734;2024-03-08T16:29:10;100020.28;;;2.57;58.09
75409;BME280;63979;55.644;37.734;2024-03-08T16:34:13;100024.53;;;2.61;58.31
75409;BME280;63979;55.644;37.734;2024-03-08T16:39:17;100012.00;;;2.41;58.65
75409;BME280;63979;55.644;37.734;2024-03-08T16:44:17;100015.19;;;2.53;58.51
75409;BME280;63979;55.644;37.734;2024-03-08T16:49:20;100010.16;;;2.45;58.49
75409;BME280;63979;55.644;37.734;2024-03-08T16:54:21;100006.47;;;2.23;58.54
75409;BME280;63979;55.644;37.734;2024-03-08T16:59:23;100018.22;;;2.12;59.27
75409;BME280;63979;55.644;37.734;2024-03-08T17:04:24;100013.22;;;2.03;60.30
75409;BME280;63979;55.644;37.734;2024-03-08T17:09:26;100010.13;;;2.18;60.30
75409;BME280;63979;55.644;37.734;2024-03-08T17:14:28;100023.75;;;2.31;60.65
75409;BME280;63979;55.644;37.734;2024-03-08T17:19:29;99976.66;;;1.94;59.81
75409;BME280;63979;55.644;37.734;2024-03-08T17:24:30;99988.34;;;2.13;60.66
75409;BME280;63979;55.644;37.734;2024-03-08T17:29:32;100009.47;;;2.38;59.86
75409;BME280;63979;55.644;37.734;2024-03-08T17:34:33;99985.88;;;2.07;59.40
75409;BME280;63979;55.644;37.734;2024-03-08T17:39:37;100015.03;;;2.29;60.25
75409;BME280;63979;55.644;37.734;2024-03-08T17:44:39;100013.88;;;2.11;60.88
75409;BME280;63979;55.644;37.734;2024-03-08T17:49:39;100016.63;;;1.79;61.24
75409;BME280;63979;55.644;37.734;2024-03-08T17:54:41;100009.97;;;1.66;61.99
75409;BME280;63979;55.644;37.734;2024-03-08T17:59:41;100004.06;;;1.58;62.71
75409;BME280;63979;55.644;37.734;2024-03-08T18:04:47;99971.97;;;1.46;62.16
75409;BME280;63979;55.644;37.734;2024-03-08T18:09:49;100005.94;;;1.83;61.24
75409;BME280;63979;55.644;37.734;2024-03-08T18:14:49;100010.06;;;1.92;60.57
75409;BME280;63979;55.644;37.734;2024-03-08T18:19:50;100018.59;;;1.71;60.80
75409;BME280;63979;55.644;37.734;2024-03-08T18:24:52;100003.84;;;1.34;61.62
75409;BME280;63979;55.644;37.734;2024-03-08T18:29:53;100004.56;;;1.41;61.93
75409;BME280;63979;55.644;37.734;2024-03-08T18:34:54;100035.00;;;1.49;61.83
75409;BME280;63979;55.644;37.734;2024-03-08T18:39:55;100039.13;;;1.58;62.28
75409;BME280;63979;55.644;37.734;2024-03-08T18:44:56;100034.47;;;1.68;61.97
75409;BME280;63979;55.644;37.734;2024-03-08T18:49:58;100032.19;;;1.55;62.12
75409;BME280;63979;55.644;37.734;2024-03-08T18:54:59;100031.00;;;1.35;63.18
75409;BME280;63979;55.644;37.734;2024-03-08T19:00:00;100028.25;;;1.41;62.66
75409;BME280;63979;55.644;37.734;2024-03-08T19:05:01;100029.25;;;1.35;63.04
75409;BME280;63979;55.644;37.734;2024-03-08T19:10:06;100035.66;;;1.25;63.17
75409;BME280;63979;55.644;37.734;2024-03-08T19:15:09;100029.50;;;0.93;63.98
75409;BME280;63979;55.644;37.734;2024-03-08T19:20:13;100030.59;;;0.85;63.54
75409;BME280;63979;55.644;37.734;2024-03-08T19:25:17;100026.41;;;0.78;64.00
75409;BME280;63979;55.644;37.734;2024-03-08T19:30:19;100031.00;;;0.70;64.36
75409;BME280;63979;55.644;37.734;2024-03-08T19:35:28;100027.78;;;0.58;64.13
75409;BME280;63979;55.644;37.734;2024-03-08T19:40:31;100029.41;;;0.62;64.58
75409;BME280;63979;55.644;37.734;2024-03-08T19:45:36;100031.13;;;0.63;64.40
75409;BME280;63979;55.644;37.734;2024-03-08T19:50:39;100032.63;;;0.75;63.98
75409;BME280;63979;55.644;37.734;2024-03-08T19:55:43;100029.06;;;0.78;63.37
75409;BME280;63979;55.644;37.734;2024-03-08T20:00:49;100019.00;;;0.59;62.83
75409;BME280;63979;55.644;37.734;2024-03-08T20:05:50;99982.47;;;0.50;62.73
75409;BME280;63979;55.644;37.734;2024-03-08T20:10:55;100023.13;;;0.70;63.18
75409;BME280;63979;55.644;37.734;2024-03-08T20:15:56;100028.47;;;0.65;62.67
75409;BME280;63979;55.644;37.734;2024-03-08T20:20:58;100025.94;;;0.62;63.03
75409;BME280;63979;55.644;37.734;2024-03-08T20:25:59;100033.72;;;0.65;62.70
75409;BME280;63979;55.644;37.734;2024-03-08T20:31:01;100022.03;;;0.78;61.63
75409;BME280;63979;55.644;37.734;2024-03-08T20:36:02;100028.09;;;0.80;61.42
75409;BME280;63979;55.644;37.734;2024-03-08T20:41:03;100022.88;;;0.79;61.02
75409;BME280;63979;55.644;37.734;2024-03-08T20:46:08;100029.47;;;0.95;60.34
75409;BME280;63979;55.644;37.734;2024-03-08T20:51:11;100032.91;;;0.97;59.72
75409;BME280;63979;55.644;37.734;2024-03-08T20:56:13;100025.03;;;0.97;59.96
75409;BME280;63979;55.644;37.734;2024-03-08T21:01:15;100030.56;;;0.86;59.42
75409;BME280;63979;55.644;37.734;2024-03-08T21:06:16;100042.22;;;0.76;59.14
75409;BME280;63979;55.644;37.734;2024-03-08T21:11:18;100032.97;;;0.60;59.41
75409;BME280;63979;55.644;37.734;2024-03-08T21:16:19;100030.75;;;0.45;59.99
75409;BME280;63979;55.644;37.734;2024-03-08T21:21:20;100015.16;;;0.39;59.62
75409;BME280;63979;55.644;37.734;2024-03-08T21:26:21;100032.34;;;0.50;59.86
75409;BME280;63979;55.644;37.734;2024-03-08T21:31:22;100031.78;;;0.73;59.58
75409;BME280;63979;55.644;37.734;2024-03-08T21:36:24;100019.56;;;0.72;60.00
75409;BME280;63979;55.644;37.734;2024-03-08T21:41:24;100039.84;;;0.66;60.75
75409;BME280;63979;55.644;37.734;2024-03-08T21:46:25;100037.56;;;0.52;60.80
75409;BME280;63979;55.644;37.734;2024-03-08T21:51:26;100038.19;;;0.61;60.57
75409;BME280;63979;55.644;37.734;2024-03-08T21:56:28;100034.81;;;0.56;60.48
75409;BME280;63979;55.644;37.734;2024-03-08T22:01:29;100043.53;;;0.58;60.60
75409;BME280;63979;55.644;37.734;2024-03-08T22:06:30;100045.13;;;0.64;60.45
75409;BME280;63979;55.644;37.734;2024-03-08T22:11:33;100037.56;;;0.52;60.32
75409;BME280;63979;55.644;37.734;2024-03-08T22:16:34;100046.78;;;0.68;59.58
75409;BME280;63979;55.644;37.734;2024-03-08T22:21:36;100045.88;;;0.69;59.37
75409;BME280;63979;55.644;37.734;2024-03-08T22:26:37;100050.84;;;0.81;58.91
75409;BME280;63979;55.644;37.734;2024-03-08T22:31:38;100057.91;;;0.79;58.60
75409;BME280;63979;55.644;37.734;2024-03-08T22:36:40;100040.63;;;0.71;58.21
75409;BME280;63979;55.644;37.734;2024-03-08T22:41:42;100056.31;;;0.74;58.20
75409;BME280;63979;55.644;37.734;2024-03-08T22:46:44;100057.25;;;0.71;57.96
75409;BME280;63979;55.644;37.734;2024-03-08T22:51:45;100066.84;;;0.72;57.41
75409;BME280;63979;55.644;37.734;2024-03-08T22:56:47;100046.34;;;0.51;57.69
75409;BME280;63979;55.644;37.734;2024-03-08T23:01:48;100059.47;;;0.51;57.65
75409;BME280;63979;55.644;37.734;2024-03-08T23:06:49;100049.72;;;0.56;56.57
75409;BME280;63979;55.644;37.734;2024-03-08T23:11:50;100059.50;;;0.49;56.93
75409;BME280;63979;55.644;37.734;2024-03-08T23:16:51;100068.38;;;0.45;56.70
75409;BME280;63979;55.644;37.734;2024-03-08T23:21:52;100031.31;;;0.20;57.18
75409;BME280;63979;55.644;37.734;2024-03-08T23:26:54;100053.81;;;0.30;56.58
75409;BME280;63979;55.644;37.734;2024-03-08T23:31:55;100062.59;;;0.29;56.74
75409;BME280;63979;55.644;37.734;2024-03-08T23:36:55;100069.56;;;0.30;56.41
75409;BME280;63979;55.644;37.734;2024-03-08T23:41:56;100072.13;;;0.34;56.13
75409;BME280;63979;55.644;37.734;2024-03-08T23:46:57;100074.88;;;0.27;55.96
75409;BME280;63979;55.644;37.734;2024-03-08T23:51:58;100074.06;;;0.25;55.22
75409;BME280;63979;55.644;37.734;2024-03-08T23:56:59;100074.97;;;0.24;54.65
